• Join FlightAware (Why Join?)
  • Login
  • US Flag 
07:36PM EDT


 

Airport Tracker/Info


-or-


 

Live Flight TrackerFlight Track Log ✈ CSH9224 ✈ 20-Feb-2014 ✈ ZWTN / HTN - ZWWW / URC

Flight Track Log - Related Links

Times and Time Zones

All times are in EST time to prevent confusion due to time zone crossing. See the CSH9224 flight status page for this flight to view local times or setup timezone preferences in your user account.

Time Position Orientation Groundspeed Altitude Reporting Facility
EST Latitude Longitude Course Direction KTS MPH feet Rate Location/Type
09:04AM 38.1634 80.9760 38° Northeast  Level Estimated
09:05AM 38.2434 81.0566 38° Northeast  Level Estimated
09:06AM 38.3233 81.1375 38° Northeast  Level Estimated
09:07AM 38.4031 81.2185 38° Northeast  Level Estimated
09:08AM 38.4829 81.2997 39° Northeast  Level Estimated
09:09AM 38.5626 81.3810 39° Northeast  Level Estimated
09:10AM 38.6423 81.4626 39° Northeast  Level Estimated
09:11AM 38.7219 81.5443 39° Northeast  Level Estimated
09:12AM 38.8015 81.6262 39° Northeast  Level Estimated
09:13AM 38.8810 81.7083 39° Northeast  Level Estimated
09:14AM 38.9604 81.7906 39° Northeast  Level Estimated
09:15AM 39.0398 81.8731 39° Northeast  Level Estimated
09:16AM 39.1191 81.9558 39° Northeast  Level Estimated
09:17AM 39.1984 82.0386 39° Northeast  Level Estimated
09:18AM 39.2776 82.1216 39° Northeast  Level Estimated
09:19AM 39.3567 82.2048 39° Northeast  Level Estimated
09:20AM 39.4358 82.2883 39° Northeast  Level Estimated
09:21AM 39.5149 82.3718 39° Northeast  Level Estimated
09:22AM 39.5938 82.4556 39° Northeast  Level Estimated
09:23AM 39.6727 82.5396 39° Northeast  Level Estimated
09:24AM 39.7516 82.6238 39° Northeast  Level Estimated
09:25AM 39.8304 82.7082 39° Northeast  Level Estimated
09:26AM 39.9091 82.7927 39° Northeast  Level Estimated
09:27AM 39.9878 82.8774 40° Northeast  Level Estimated
09:28AM 40.0663 82.9624 40° Northeast  Level Estimated
09:29AM 40.1449 83.0475 40° Northeast  Level Estimated
09:30AM 40.2234 83.1329 40° Northeast  Level Estimated
09:31AM 40.3018 83.2184 40° Northeast  Level Estimated
09:32AM 40.3801 83.3041 40° Northeast  Level Estimated
09:33AM 40.4584 83.3901 40° Northeast  Level Estimated
09:34AM 40.5366 83.4762 40° Northeast  Level Estimated
09:35AM 40.6148 83.5625 40° Northeast  Level Estimated
09:36AM 40.6929 83.6491 40° Northeast  Level Estimated
09:37AM 40.7709 83.7358 40° Northeast  Level Estimated
09:38AM 40.8489 83.8228 40° Northeast  Level Estimated
09:39AM 40.9268 83.9099 40° Northeast  Level Estimated
09:40AM 41.0046 83.9973 40° Northeast  Level Estimated
09:41AM 41.0824 84.0848 40° Northeast  Level Estimated
09:42AM 41.1601 84.1726 40° Northeast  Level Estimated
09:43AM 41.2377 84.2606 40° Northeast  Level Estimated
09:44AM 41.3153 84.3488 40° Northeast  Level Estimated
09:45AM 41.3928 84.4372 41° Northeast  Level Estimated
09:46AM 41.4702 84.5258 41° Northeast  Level Estimated
09:47AM 41.5476 84.6146 41° Northeast  Level Estimated
09:48AM 41.6249 84.7036 41° Northeast  Level Estimated
09:49AM 41.7021 84.7929 41° Northeast  Level Estimated
09:50AM 41.7793 84.8823 41° Northeast  Level Estimated
09:51AM 41.8564 84.9720 41° Northeast  Level Estimated
09:52AM 41.9334 85.0619 41° Northeast  Level Estimated
09:53AM 42.0103 85.1520 41° Northeast  Level Estimated
09:54AM 42.0872 85.2423 41° Northeast  Level Estimated
09:55AM 42.1640 85.3329 41° Northeast  Level Estimated
09:56AM 42.2408 85.4237 41° Northeast  Level Estimated
09:57AM 42.3174 85.5147 41° Northeast  Level Estimated
09:58AM 42.3940 85.6059 41° Northeast  Level Estimated
09:59AM 42.4705 85.6973 41° Northeast  Level Estimated
10:00AM 42.5470 85.7890 41° Northeast  Level Estimated
10:01AM 42.6233 85.8808 42° Northeast  Level Estimated
10:02AM 42.6996 85.9730 42° Northeast  Level Estimated
10:03AM 42.7759 86.0653 42° Northeast  Level Estimated
10:04AM 42.8520 86.1578 42° Northeast  Level Estimated
10:05AM 42.9281 86.2506 42° Northeast  Level Estimated
10:06AM 43.0041 86.3437 42° Northeast  Level Estimated
10:07AM 43.0800 86.4369 42° Northeast  Level Estimated
10:08AM 43.1559 86.5304 42° Northeast  Level Estimated
10:09AM 43.2317 86.6241 42° Northeast  Level Estimated
10:10AM 43.3074 86.7180 42° Northeast  Level Estimated
10:11AM 43.3830 86.8122 42° Northeast  Level Estimated
10:12AM 43.4585 86.9066 42° Northeast  Level Estimated
10:13AM 43.5340 87.0013 42° Northeast  Level Estimated
10:14AM 43.6094 87.0962 42° Northeast  Level Estimated
10:15AM 43.6847 87.1913 42° Northeast  Level Estimated
10:16AM 43.7599 87.2867 42° Northeast  Level Estimated
10:17AM 43.8351 87.3823 43° Northeast  Level Estimated
10:18AM 43.9071 87.4742 43° Northeast  Level Estimated
10:19AM 43.9071 87.4742 144° Southeast  Level Estimated
10:20AM 43.9071 87.4742 144° Southeast  Level Estimated
10:21AM 43.9071 87.4742 144° Southeast  Level Estimated
10:22AM 43.9071 87.4742 144° Southeast  Level Estimated
10:23AM 43.9071 87.4742 144° Southeast  Level Estimated
10:24AM 43.9071 87.4742 144° Southeast  Level Estimated
10:25AM 43.9071 87.4742 144° Southeast  Level Estimated
10:26AM 43.9071 87.4742 144° Southeast  Level Estimated